createdAt,value
2023-04-08T00:00:18.136Z,90739.03
2023-04-08T00:03:03.346Z,90746.25
2023-04-08T00:05:47.905Z,90743.22
2023-04-08T00:08:32.760Z,90740.69
2023-04-08T00:11:17.522Z,90742.50
2023-04-08T00:14:02.506Z,90744.59
2023-04-08T00:16:47.354Z,90742.75
2023-04-08T00:19:33.530Z,90741.44
2023-04-08T00:22:19.381Z,90750.09
2023-04-08T00:25:04.282Z,90735.88
2023-04-08T00:27:49.223Z,90740.78
2023-04-08T00:30:34.060Z,90735.25
2023-04-08T00:33:18.965Z,90737.50
2023-04-08T00:36:03.775Z,90733.25
2023-04-08T00:38:48.722Z,90736.75
2023-04-08T00:41:33.884Z,90739.00
2023-04-08T00:44:18.843Z,90735.47
2023-04-08T00:47:03.894Z,90728.81
2023-04-08T00:49:48.720Z,90724.06
2023-04-08T00:52:33.731Z,90726.03
2023-04-08T00:55:18.496Z,90724.25
2023-04-08T00:58:03.522Z,90730.25
2023-04-08T01:00:48.485Z,90735.13
2023-04-08T01:03:33.388Z,90729.13
2023-04-08T01:06:18.258Z,90733.28
2023-04-08T01:09:07.158Z,90738.50
2023-04-08T01:11:51.801Z,90735.94
2023-04-08T01:14:36.704Z,90743.97
2023-04-08T01:17:21.648Z,90746.47
2023-04-08T01:20:06.444Z,90744.47
2023-04-08T01:22:51.353Z,90739.03
2023-04-08T01:25:36.356Z,90739.16
2023-04-08T01:28:21.054Z,90728.66
2023-04-08T01:31:06.085Z,90732.78
2023-04-08T01:33:51.203Z,90734.44
2023-04-08T01:36:36.153Z,90727.63
2023-04-08T01:39:21.046Z,90728.56
2023-04-08T01:42:05.940Z,90731.47
2023-04-08T01:44:50.864Z,90732.97
2023-04-08T01:47:35.798Z,90730.78
2023-04-08T01:50:20.663Z,90738.13
2023-04-08T01:53:05.510Z,90738.97
2023-04-08T01:55:50.429Z,90736.25
2023-04-08T01:58:35.182Z,90741.13
2023-04-08T02:01:20.155Z,90742.34
2023-04-08T02:04:04.915Z,90738.56
2023-04-08T02:06:49.981Z,90742.03
2023-04-08T02:09:34.924Z,90742.88
2023-04-08T02:12:19.908Z,90738.66
2023-04-08T02:15:04.841Z,90741.31
2023-04-08T02:17:49.758Z,90739.56
2023-04-08T02:20:34.652Z,90740.94
2023-04-08T02:23:19.535Z,90744.41
2023-04-08T02:26:04.450Z,90744.63
2023-04-08T02:28:49.525Z,90748.97
2023-04-08T02:31:34.646Z,90749.50
2023-04-08T02:34:19.536Z,90748.97
2023-04-08T02:37:04.389Z,90745.78
2023-04-08T02:39:49.439Z,90747.75
2023-04-08T02:42:34.367Z,90743.28
2023-04-08T02:45:19.425Z,90751.63
2023-04-08T02:48:04.483Z,90749.66
2023-04-08T02:50:49.347Z,90750.41
2023-04-08T02:53:34.215Z,90750.94
2023-04-08T02:56:19.094Z,90741.44
2023-04-08T02:59:03.956Z,90751.84
2023-04-08T03:01:49.021Z,90745.19
2023-04-08T03:04:33.935Z,90752.25
2023-04-08T03:07:18.800Z,90747.41
2023-04-08T03:10:03.806Z,90738.81
2023-04-08T03:12:48.762Z,90739.69
2023-04-08T03:15:33.768Z,90747.56
2023-04-08T03:18:18.627Z,90742.81
2023-04-08T03:21:03.574Z,90750.50
2023-04-08T03:23:48.589Z,90748.78
2023-04-08T03:26:33.616Z,90743.75
2023-04-08T03:29:18.528Z,90751.38
2023-04-08T03:32:03.466Z,90753.75
2023-04-08T03:34:48.324Z,90752.47
2023-04-08T03:37:33.223Z,90762.78
2023-04-08T03:40:18.216Z,90759.53
2023-04-08T03:43:03.208Z,90756.72
2023-04-08T03:45:48.163Z,90757.16
2023-04-08T03:48:33.064Z,90759.13
2023-04-08T03:51:17.932Z,90757.41
2023-04-08T03:54:02.720Z,90759.03
2023-04-08T03:56:47.361Z,90750.69
2023-04-08T03:59:32.174Z,90751.38
2023-04-08T04:02:17.087Z,90755.03
2023-04-08T04:05:02.056Z,90749.59
2023-04-08T04:07:46.812Z,90759.66
2023-04-08T04:10:31.754Z,90749.88
2023-04-08T04:13:16.665Z,90754.16
2023-04-08T04:16:01.654Z,90758.63
2023-04-08T04:18:46.636Z,90755.78
2023-04-08T04:21:31.459Z,90760.09
2023-04-08T04:24:16.438Z,90759.09
2023-04-08T04:27:01.311Z,90754.19
2023-04-08T04:29:46.131Z,90761.88
2023-04-08T04:32:31.024Z,90762.41
2023-04-08T04:35:15.906Z,90762.13
2023-04-08T04:38:00.912Z,90763.25
2023-04-08T04:40:45.895Z,90767.41
2023-04-08T04:43:30.966Z,90771.06
2023-04-08T04:46:15.679Z,90770.44
2023-04-08T04:49:00.483Z,90768.31
2023-04-08T04:51:45.492Z,90761.50
2023-04-08T04:54:30.487Z,90775.34
2023-04-08T04:57:15.412Z,90779.34
2023-04-08T05:00:01.010Z,90775.84
2023-04-08T05:02:47.074Z,90783.28
2023-04-08T05:05:31.835Z,90777.50
2023-04-08T05:08:16.842Z,90778.31
2023-04-08T05:11:01.764Z,90780.75
2023-04-08T05:13:46.658Z,90783.75
2023-04-08T05:16:31.529Z,90786.19
2023-04-08T05:19:16.416Z,90790.41
2023-04-08T05:22:01.445Z,90793.69
2023-04-08T05:24:46.216Z,90800.25
2023-04-08T05:27:31.226Z,90794.44
2023-04-08T05:30:15.998Z,90790.41
2023-04-08T05:33:01.070Z,90791.25
2023-04-08T05:35:45.876Z,90795.41
2023-04-08T05:38:30.786Z,90793.28
2023-04-08T05:41:15.646Z,90805.34
2023-04-08T05:44:00.666Z,90801.50
2023-04-08T05:46:45.628Z,90808.50
2023-04-08T05:49:30.334Z,90805.72
2023-04-08T05:52:15.273Z,90807.41
2023-04-08T05:55:00.136Z,90808.81
2023-04-08T05:57:45.044Z,90808.56
2023-04-08T06:00:29.934Z,90816.75
2023-04-08T06:03:15.848Z,90813.78
2023-04-08T06:06:02.119Z,90819.66
2023-04-08T06:08:47.105Z,90819.47
2023-04-08T06:11:31.931Z,90821.84
2023-04-08T06:14:16.907Z,90826.13
2023-04-08T06:17:01.984Z,90829.09
2023-04-08T06:19:46.789Z,90824.28
2023-04-08T06:22:32.096Z,90825.59
2023-04-08T06:25:16.992Z,90820.50
2023-04-08T06:28:01.613Z,90820.44
2023-04-08T06:30:46.609Z,90824.44
2023-04-08T06:33:31.407Z,90823.91
2023-04-08T06:36:16.358Z,90822.13
2023-04-08T06:39:01.106Z,90815.00
2023-04-08T06:41:46.287Z,90820.09
2023-04-08T06:44:30.810Z,90823.81
2023-04-08T06:47:15.855Z,90819.94
2023-04-08T06:50:00.700Z,90816.34
2023-04-08T06:52:45.686Z,90822.78
2023-04-08T06:55:30.533Z,90819.63
2023-04-08T06:58:15.286Z,90806.66
2023-04-08T07:01:00.211Z,90819.69
2023-04-08T07:03:45.159Z,90822.69
2023-04-08T07:06:29.944Z,90819.19
2023-04-08T07:09:14.635Z,90828.13
2023-04-08T07:11:59.763Z,90820.22
2023-04-08T07:14:44.363Z,90821.78
2023-04-08T07:17:29.393Z,90824.06
2023-04-08T07:20:14.149Z,90817.44
2023-04-08T07:22:58.987Z,90830.25
2023-04-08T07:25:44.010Z,90830.81
2023-04-08T07:28:28.810Z,90823.00
2023-04-08T07:31:13.804Z,90834.75
2023-04-08T07:33:58.662Z,90828.28
2023-04-08T07:36:43.568Z,90827.47
2023-04-08T07:39:28.420Z,90825.03
2023-04-08T07:42:13.316Z,90832.94
2023-04-08T07:44:58.359Z,90826.53
2023-04-08T07:47:43.170Z,90831.97
2023-04-08T07:50:28.252Z,90833.28
2023-04-08T07:53:13.136Z,90833.31
2023-04-08T07:55:57.965Z,90832.31
2023-04-08T07:58:42.841Z,90831.41
2023-04-08T08:01:27.729Z,90833.41
2023-04-08T08:04:12.690Z,90837.66
2023-04-08T08:06:58.157Z,90834.16
2023-04-08T08:09:43.244Z,90827.69
2023-04-08T08:12:28.487Z,90834.41
2023-04-08T08:15:13.515Z,90831.16
2023-04-08T08:17:58.321Z,90831.88
2023-04-08T08:20:43.563Z,90829.09
2023-04-08T08:23:28.219Z,90830.81
2023-04-08T08:26:13.256Z,90828.59
2023-04-08T08:28:57.917Z,90829.47
2023-04-08T08:31:42.968Z,90831.94
2023-04-08T08:34:27.883Z,90839.66
2023-04-08T08:37:12.829Z,90837.97
2023-04-08T08:39:57.804Z,90845.78
2023-04-08T08:42:43.256Z,90840.50
2023-04-08T08:45:28.194Z,90834.63
2023-04-08T08:48:13.082Z,90839.88
2023-04-08T08:50:57.973Z,90835.88
2023-04-08T08:53:43.099Z,90834.38
2023-04-08T08:56:28.095Z,90836.28
2023-04-08T08:59:13.721Z,90839.66
2023-04-08T09:02:00.418Z,90837.53
2023-04-08T09:04:46.278Z,90840.19
2023-04-08T09:07:31.233Z,90844.88
2023-04-08T09:10:17.244Z,90841.53
2023-04-08T09:13:05.775Z,90831.16
2023-04-08T09:15:52.703Z,90831.59
2023-04-08T09:18:37.361Z,90837.78
2023-04-08T09:21:22.501Z,90831.25
2023-04-08T09:24:07.648Z,90829.66
2023-04-08T09:26:52.487Z,90820.97
2023-04-08T09:29:39.702Z,90822.66
2023-04-08T09:32:25.167Z,90822.72
2023-04-08T09:35:10.073Z,90816.28
2023-04-08T09:37:54.871Z,90816.88
2023-04-08T09:40:39.818Z,90809.31
2023-04-08T09:43:24.819Z,90818.19
2023-04-08T09:46:09.713Z,90812.44
2023-04-08T09:48:54.805Z,90809.13
2023-04-08T09:51:40.333Z,90802.31
2023-04-08T09:54:25.247Z,90809.69
2023-04-08T09:57:10.104Z,90800.47
2023-04-08T09:59:55.086Z,90803.88
2023-04-08T10:02:39.974Z,90798.50
2023-04-08T10:05:24.744Z,90805.00
2023-04-08T10:08:09.511Z,90801.00
2023-04-08T10:10:54.450Z,90799.75
2023-04-08T10:13:39.366Z,90795.88
2023-04-08T10:16:24.232Z,90790.66
2023-04-08T10:19:09.128Z,90795.44
2023-04-08T10:21:54.095Z,90794.06
2023-04-08T10:24:38.967Z,90788.41
2023-04-08T10:27:23.723Z,90783.56
2023-04-08T10:30:08.719Z,90780.53
2023-04-08T10:32:53.792Z,90771.78
2023-04-08T10:35:38.954Z,90778.91
2023-04-08T10:38:23.998Z,90770.84
2023-04-08T10:41:08.957Z,90775.94
2023-04-08T10:43:53.746Z,90771.97
2023-04-08T10:46:38.857Z,90767.75
2023-04-08T10:49:23.481Z,90773.59
2023-04-08T10:52:08.378Z,90773.66
2023-04-08T10:54:53.349Z,90768.69
2023-04-08T10:57:38.263Z,90763.53
2023-04-08T11:00:23.113Z,90760.09
2023-04-08T11:03:08.343Z,90763.81
2023-04-08T11:05:53.720Z,90754.88
2023-04-08T11:08:39.823Z,90761.97
2023-04-08T11:11:24.636Z,90754.81
2023-04-08T11:14:09.454Z,90758.06
2023-04-08T11:16:54.240Z,90755.66
2023-04-08T11:19:38.957Z,90753.53
2023-04-08T11:22:23.570Z,90751.84
2023-04-08T11:25:08.420Z,90739.81
2023-04-08T11:27:53.331Z,90748.47
2023-04-08T11:30:38.468Z,90740.34
2023-04-08T11:33:23.580Z,90743.63
2023-04-08T11:36:08.612Z,90744.81
2023-04-08T11:38:53.565Z,90733.56
2023-04-08T11:41:38.371Z,90734.22
2023-04-08T11:44:23.277Z,90729.28
2023-04-08T11:47:08.008Z,90726.28
2023-04-08T11:49:52.908Z,90727.91
2023-04-08T11:52:37.824Z,90726.69
2023-04-08T11:55:22.427Z,90714.69
2023-04-08T11:58:07.530Z,90725.09
2023-04-08T12:00:52.532Z,90715.16
2023-04-08T12:03:37.524Z,90711.50
2023-04-08T12:06:22.174Z,90710.56
2023-04-08T12:09:07.247Z,90703.59
2023-04-08T12:11:52.071Z,90707.25
2023-04-08T12:14:37.057Z,90708.75
2023-04-08T12:17:22.038Z,90704.84
2023-04-08T12:20:06.900Z,90706.06
2023-04-08T12:22:51.815Z,90704.91
2023-04-08T12:25:36.684Z,90707.56
2023-04-08T12:28:24.274Z,90704.06
2023-04-08T12:31:09.198Z,90696.81
2023-04-08T12:33:54.012Z,90700.31
2023-04-08T12:36:40.576Z,90698.63
2023-04-08T12:39:26.663Z,90691.22
2023-04-08T12:42:11.543Z,90689.53
2023-04-08T12:44:56.495Z,90696.09
2023-04-08T12:47:41.451Z,90684.56
2023-04-08T12:50:26.283Z,90684.41
2023-04-08T12:53:11.119Z,90690.13
2023-04-08T12:55:56.217Z,90682.97
2023-04-08T12:58:41.091Z,90683.03
2023-04-08T13:01:26.248Z,90683.38
2023-04-08T13:04:10.993Z,90683.91
2023-04-08T13:06:55.924Z,90674.06
2023-04-08T13:09:40.813Z,90672.78
2023-04-08T13:12:25.590Z,90674.69
2023-04-08T13:15:10.563Z,90678.56
2023-04-08T13:17:55.470Z,90670.34
2023-04-08T13:20:40.397Z,90670.63
2023-04-08T13:23:25.360Z,90675.31
2023-04-08T13:26:10.261Z,90667.94
2023-04-08T13:29:00.779Z,90675.06
2023-04-08T13:31:45.933Z,90673.09
2023-04-08T13:34:30.935Z,90671.09
2023-04-08T13:37:15.744Z,90673.94
2023-04-08T13:40:00.611Z,90679.59
2023-04-08T13:42:45.549Z,90671.50
2023-04-08T13:45:30.342Z,90671.81
2023-04-08T13:48:15.247Z,90665.28
2023-04-08T13:51:00.057Z,90671.44
2023-04-08T13:53:45.043Z,90665.41
2023-04-08T13:56:29.903Z,90677.34
2023-04-08T13:59:14.674Z,90667.66
2023-04-08T14:01:59.697Z,90672.28
2023-04-08T14:04:44.670Z,90663.81
2023-04-08T14:07:29.607Z,90657.38
2023-04-08T14:10:14.549Z,90661.16
2023-04-08T14:12:59.386Z,90655.78
2023-04-08T14:15:44.216Z,90667.91
2023-04-08T14:18:29.117Z,90666.38
2023-04-08T14:21:13.917Z,90659.91
2023-04-08T14:24:01.267Z,90655.41
2023-04-08T14:26:47.298Z,90657.06
2023-04-08T14:29:32.165Z,90656.88
2023-04-08T14:32:18.116Z,90652.06
2023-04-08T14:35:05.218Z,90656.63
2023-04-08T14:37:52.719Z,90663.03
2023-04-08T14:40:37.993Z,90651.75
2023-04-08T14:43:23.792Z,90656.03
2023-04-08T14:46:13.403Z,90647.72
2023-04-08T14:48:58.764Z,90659.41
2023-04-08T14:51:43.574Z,90652.31
2023-04-08T14:54:28.375Z,90661.91
2023-04-08T14:57:14.999Z,90662.63
2023-04-08T15:00:00.640Z,90665.19
2023-04-08T15:02:45.401Z,90669.13
2023-04-08T15:05:30.092Z,90669.41
2023-04-08T15:08:14.988Z,90655.16
2023-04-08T15:10:59.850Z,90665.91
2023-04-08T15:13:45.882Z,90669.19
2023-04-08T15:16:30.629Z,90670.03
2023-04-08T15:19:22.035Z,90671.69
2023-04-08T15:22:06.754Z,90667.94
2023-04-08T15:24:56.897Z,90666.00
2023-04-08T15:27:41.881Z,90670.78
2023-04-08T15:30:26.591Z,90670.94
2023-04-08T15:33:11.703Z,90664.88
2023-04-08T15:35:56.625Z,90665.25
2023-04-08T15:38:41.555Z,90669.66
2023-04-08T15:41:26.602Z,90666.66
2023-04-08T15:44:11.680Z,90676.28
2023-04-08T15:46:56.599Z,90677.66
2023-04-08T15:49:41.486Z,90667.69
2023-04-08T15:52:26.330Z,90676.88
2023-04-08T15:55:11.253Z,90670.63
2023-04-08T15:57:56.203Z,90673.81
2023-04-08T16:00:41.057Z,90675.84
2023-04-08T16:03:25.924Z,90675.28
2023-04-08T16:06:14.981Z,90678.53
2023-04-08T16:08:59.584Z,90680.09
2023-04-08T16:11:44.498Z,90679.19
2023-04-08T16:14:29.301Z,90683.13
2023-04-08T16:17:14.150Z,90682.47
2023-04-08T16:19:59.054Z,90683.88
2023-04-08T16:22:43.824Z,90681.91
2023-04-08T16:25:28.648Z,90685.63
2023-04-08T16:28:13.636Z,90688.66
2023-04-08T16:30:58.476Z,90692.97
2023-04-08T16:33:43.332Z,90690.44
2023-04-08T16:36:28.273Z,90692.88
2023-04-08T16:39:13.075Z,90695.97
2023-04-08T16:41:58.015Z,90684.56
2023-04-08T16:44:42.718Z,90702.34
2023-04-08T16:47:27.861Z,90697.50
2023-04-08T16:50:12.776Z,90692.72
2023-04-08T16:52:59.059Z,90695.41
2023-04-08T16:55:43.771Z,90703.63
2023-04-08T16:58:28.519Z,90698.44
2023-04-08T17:01:13.584Z,90702.09
2023-04-08T17:03:58.672Z,90703.16
2023-04-08T17:06:43.396Z,90707.72
2023-04-08T17:09:28.199Z,90712.91
2023-04-08T17:12:13.187Z,90711.94
2023-04-08T17:14:58.116Z,90715.97
2023-04-08T17:17:43.173Z,90717.59
2023-04-08T17:20:28.072Z,90717.06
2023-04-08T17:23:13.040Z,90718.44
2023-04-08T17:25:58.056Z,90721.63
2023-04-08T17:28:42.821Z,90719.09
2023-04-08T17:31:27.783Z,90723.72
2023-04-08T17:34:12.539Z,90729.16
2023-04-08T17:36:57.352Z,90737.19
2023-04-08T17:39:42.203Z,90728.19
2023-04-08T17:42:27.153Z,90729.78
2023-04-08T17:45:12.144Z,90729.88
2023-04-08T17:47:56.969Z,90731.56
2023-04-08T17:50:41.865Z,90735.81
2023-04-08T17:53:26.695Z,90739.69
2023-04-08T17:56:11.818Z,90741.16
2023-04-08T17:58:56.474Z,90739.78
2023-04-08T18:01:41.706Z,90746.44
2023-04-08T18:04:26.432Z,90754.75
2023-04-08T18:07:11.392Z,90745.88
2023-04-08T18:09:56.379Z,90761.19
2023-04-08T18:12:41.369Z,90766.66
2023-04-08T18:15:26.503Z,90769.72
2023-04-08T18:18:11.299Z,90761.34
2023-04-08T18:20:56.272Z,90776.66
2023-04-08T18:23:41.139Z,90778.72
2023-04-08T18:26:26.156Z,90783.28
2023-04-08T18:29:11.111Z,90784.31
2023-04-08T18:31:56.068Z,90788.03
2023-04-08T18:34:41.140Z,90795.97
2023-04-08T18:37:26.119Z,90798.94
2023-04-08T18:40:11.172Z,90806.75
2023-04-08T18:42:55.932Z,90811.13
2023-04-08T18:45:40.888Z,90814.00
2023-04-08T18:48:25.806Z,90818.78
2023-04-08T18:51:10.759Z,90815.63
2023-04-08T18:53:56.967Z,90818.22
2023-04-08T18:56:41.849Z,90828.88
2023-04-08T18:59:26.763Z,90826.50
2023-04-08T19:02:11.604Z,90840.28
2023-04-08T19:04:56.552Z,90841.56
2023-04-08T19:07:41.263Z,90838.81
2023-04-08T19:10:26.072Z,90848.28
2023-04-08T19:13:10.984Z,90851.13
2023-04-08T19:15:56.055Z,90851.16
2023-04-08T19:18:41.314Z,90851.88
2023-04-08T19:21:25.941Z,90854.38
2023-04-08T19:24:10.978Z,90863.44
2023-04-08T19:26:55.811Z,90864.25
2023-04-08T19:29:40.787Z,90871.97
2023-04-08T19:32:25.725Z,90863.03
2023-04-08T19:35:10.645Z,90864.34
2023-04-08T19:37:55.518Z,90872.38
2023-04-08T19:40:40.330Z,90870.66
2023-04-08T19:43:25.480Z,90878.13
2023-04-08T19:46:10.255Z,90881.63
2023-04-08T19:48:55.164Z,90878.19
2023-04-08T19:51:40.109Z,90875.94
2023-04-08T19:54:25.029Z,90876.22
2023-04-08T19:57:09.900Z,90883.63
2023-04-08T19:59:54.702Z,90883.88
2023-04-08T20:02:39.808Z,90880.94
2023-04-08T20:05:24.515Z,90885.25
2023-04-08T20:08:09.487Z,90884.25
2023-04-08T20:10:54.458Z,90888.25
2023-04-08T20:13:39.503Z,90885.56
2023-04-08T20:16:24.387Z,90885.09
2023-04-08T20:19:09.309Z,90884.84
2023-04-08T20:21:54.193Z,90883.38
2023-04-08T20:24:39.571Z,90889.16
2023-04-08T20:27:24.526Z,90877.41
2023-04-08T20:30:09.562Z,90880.16
2023-04-08T20:32:54.695Z,90873.66
2023-04-08T20:35:39.463Z,90886.66
2023-04-08T20:38:24.284Z,90884.69
2023-04-08T20:41:09.148Z,90883.47
2023-04-08T20:43:54.054Z,90881.50
2023-04-08T20:46:38.978Z,90887.72
2023-04-08T20:49:23.719Z,90889.97
2023-04-08T20:52:08.818Z,90889.25
2023-04-08T20:54:53.856Z,90882.75
2023-04-08T20:57:39.829Z,90885.75
2023-04-08T21:00:24.757Z,90885.50
2023-04-08T21:03:09.790Z,90881.28
2023-04-08T21:05:54.572Z,90883.78
2023-04-08T21:08:39.480Z,90875.06
2023-04-08T21:11:24.216Z,90872.38
2023-04-08T21:14:09.097Z,90872.09
2023-04-08T21:16:54.036Z,90867.38
2023-04-08T21:19:38.981Z,90864.41
2023-04-08T21:22:24.014Z,90881.06
2023-04-08T21:25:08.944Z,90881.56
2023-04-08T21:27:53.826Z,90884.03
2023-04-08T21:30:38.836Z,90879.13
2023-04-08T21:33:23.618Z,90882.09
2023-04-08T21:36:08.454Z,90884.59
2023-04-08T21:38:53.712Z,90881.13
2023-04-08T21:41:38.839Z,90886.06
2023-04-08T21:44:23.783Z,90884.59
2023-04-08T21:47:08.821Z,90888.31
2023-04-08T21:49:53.657Z,90887.84
2023-04-08T21:52:39.332Z,90886.09
2023-04-08T21:55:25.250Z,90892.78
2023-04-08T21:58:10.177Z,90890.56
2023-04-08T22:00:55.148Z,90892.03
2023-04-08T22:03:39.949Z,90887.59
2023-04-08T22:06:31.974Z,90898.53
2023-04-08T22:09:17.782Z,90897.28
2023-04-08T22:12:02.457Z,90889.31
2023-04-08T22:14:47.534Z,90896.78
2023-04-08T22:17:32.338Z,90896.53
2023-04-08T22:20:17.236Z,90898.53
2023-04-08T22:23:02.134Z,90895.53
2023-04-08T22:25:46.854Z,90906.97
2023-04-08T22:28:31.702Z,90905.22
2023-04-08T22:31:16.616Z,90908.44
2023-04-08T22:34:01.614Z,90910.69
2023-04-08T22:36:46.389Z,90906.22
2023-04-08T22:39:31.260Z,90909.66
2023-04-08T22:42:16.166Z,90913.66
2023-04-08T22:45:01.084Z,90909.16
2023-04-08T22:47:45.980Z,90904.94
2023-04-08T22:50:30.729Z,90898.75
2023-04-08T22:53:15.713Z,90906.19
2023-04-08T22:56:00.662Z,90903.22
2023-04-08T22:58:45.594Z,90905.69
2023-04-08T23:01:30.519Z,90906.94
2023-04-08T23:04:15.694Z,90899.72
2023-04-08T23:07:00.582Z,90906.41
2023-04-08T23:09:45.580Z,90903.41
2023-04-08T23:12:30.504Z,90894.25
2023-04-08T23:15:15.349Z,90903.19
2023-04-08T23:18:00.400Z,90897.94
2023-04-08T23:20:45.289Z,90903.41
2023-04-08T23:23:30.180Z,90906.88
2023-04-08T23:26:15.029Z,90908.13
2023-04-08T23:29:00.127Z,90912.59
2023-04-08T23:31:44.872Z,90920.53
2023-04-08T23:34:29.745Z,90916.06
2023-04-08T23:37:14.513Z,90922.78
2023-04-08T23:39:59.384Z,90921.03
2023-04-08T23:42:44.401Z,90932.19
2023-04-08T23:45:29.341Z,90919.53
2023-04-08T23:48:14.273Z,90928.94
2023-04-08T23:50:59.161Z,90935.59
2023-04-08T23:53:44.080Z,90935.31
2023-04-08T23:56:29.019Z,90933.34
2023-04-08T23:59:13.887Z,90934.81
